createdAt,value
2023-03-15T00:02:13.064Z,100950.44
2023-03-15T00:04:42.362Z,100953.00
2023-03-15T00:07:10.340Z,100955.56
2023-03-15T00:09:37.992Z,100953.78
2023-03-15T00:12:06.460Z,100960.00
2023-03-15T00:14:34.151Z,100963.47
2023-03-15T00:17:01.919Z,100971.44
2023-03-15T00:19:29.689Z,100972.22
2023-03-15T00:21:58.709Z,100972.22
2023-03-15T00:24:26.545Z,100983.78
2023-03-15T00:26:54.204Z,100986.44
2023-03-15T00:29:21.956Z,100982.78
2023-03-15T00:31:50.043Z,100983.50
2023-03-15T00:34:18.874Z,100991.50
2023-03-15T00:36:46.862Z,100996.75
2023-03-15T00:39:17.173Z,100998.41
2023-03-15T00:41:45.753Z,100994.88
2023-03-15T00:44:13.972Z,100999.25
2023-03-15T00:46:44.588Z,101004.56
2023-03-15T00:49:12.535Z,100999.28
2023-03-15T00:51:40.256Z,101009.78
2023-03-15T00:54:07.900Z,101004.41
2023-03-15T00:56:37.708Z,101018.28
2023-03-15T00:59:05.365Z,101014.63
2023-03-15T01:01:33.095Z,101010.09
2023-03-15T01:04:01.362Z,101005.63
2023-03-15T01:06:30.258Z,101002.00
2023-03-15T01:08:58.114Z,101015.16
2023-03-15T01:11:28.389Z,101009.84
2023-03-15T01:13:59.195Z,101010.72
2023-03-15T01:16:27.939Z,101012.53
2023-03-15T01:18:56.087Z,101010.69
2023-03-15T01:21:24.841Z,101017.72
2023-03-15T01:23:53.145Z,101008.84
2023-03-15T01:26:21.166Z,101018.63
2023-03-15T01:28:49.143Z,101017.56
2023-03-15T01:31:22.066Z,101012.28
2023-03-15T01:33:49.771Z,101006.22
2023-03-15T01:36:18.070Z,101015.03
2023-03-15T01:38:46.474Z,101023.84
2023-03-15T01:41:15.481Z,101027.34
2023-03-15T01:43:48.583Z,101035.22
2023-03-15T01:46:24.766Z,101029.84
2023-03-15T01:48:58.091Z,101030.72
2023-03-15T01:51:29.630Z,101029.81
2023-03-15T01:54:01.970Z,101033.31
2023-03-15T01:56:32.562Z,101039.63
2023-03-15T01:59:02.652Z,101047.47
2023-03-15T02:01:34.012Z,101044.78
2023-03-15T02:04:08.560Z,101059.91
2023-03-15T02:06:36.965Z,101059.88
2023-03-15T02:09:09.986Z,101066.09
2023-03-15T02:11:37.868Z,101063.59
2023-03-15T02:14:07.189Z,101067.13
2023-03-15T02:16:36.585Z,101067.16
2023-03-15T02:19:05.902Z,101072.53
2023-03-15T02:21:43.577Z,101071.66
2023-03-15T02:24:27.412Z,101065.59
2023-03-15T02:26:57.189Z,101074.47
2023-03-15T02:29:29.283Z,101063.88
2023-03-15T02:31:58.676Z,101064.72
2023-03-15T02:34:26.961Z,101061.97
2023-03-15T02:36:55.652Z,101065.44
2023-03-15T02:42:09.447Z,101071.47
2023-03-15T02:44:40.759Z,101069.75
2023-03-15T02:47:11.368Z,101071.56
2023-03-15T02:49:43.405Z,101075.91
2023-03-15T02:52:12.147Z,101073.41
2023-03-15T02:54:43.194Z,101074.25
2023-03-15T02:57:11.310Z,101075.97
2023-03-15T02:59:41.981Z,101077.50
2023-03-15T03:02:11.721Z,101083.59
2023-03-15T03:04:40.066Z,101094.97
2023-03-15T03:07:08.168Z,101102.03
2023-03-15T03:09:36.031Z,101096.75
2023-03-15T03:12:03.716Z,101103.84
2023-03-15T03:14:31.492Z,101104.75
2023-03-15T03:17:01.547Z,101108.28
2023-03-15T03:19:29.238Z,101111.69
2023-03-15T03:21:57.443Z,101122.34
2023-03-15T03:24:25.977Z,101125.09
2023-03-15T03:26:57.671Z,101130.31
2023-03-15T03:29:28.463Z,101122.44
2023-03-15T03:31:57.898Z,101135.66
2023-03-15T03:34:27.212Z,101142.81
2023-03-15T03:36:55.018Z,101148.97
2023-03-15T03:39:22.678Z,101150.59
2023-03-15T03:41:50.475Z,101148.78
2023-03-15T03:44:18.130Z,101157.50
2023-03-15T03:46:45.876Z,101169.72
2023-03-15T03:49:14.709Z,101166.34
2023-03-15T03:51:43.773Z,101170.91
2023-03-15T03:54:11.464Z,101175.28
2023-03-15T03:56:39.661Z,101182.44
2023-03-15T03:59:07.318Z,101178.03
2023-03-15T04:01:34.920Z,101183.38
2023-03-15T04:04:02.612Z,101190.34
2023-03-15T04:06:32.577Z,101187.59
2023-03-15T04:09:02.699Z,101192.13
2023-03-15T04:11:30.473Z,101193.84
2023-03-15T04:13:58.162Z,101189.50
2023-03-15T04:16:26.102Z,101194.09
2023-03-15T04:18:56.416Z,101201.19
2023-03-15T04:21:24.143Z,101203.91
2023-03-15T04:23:52.247Z,101200.44
2023-03-15T04:26:21.266Z,101201.31
2023-03-15T04:28:49.323Z,101204.88
2023-03-15T04:31:17.049Z,101203.19
2023-03-15T04:33:45.100Z,101210.16
2023-03-15T04:36:18.980Z,101206.59
2023-03-15T04:38:47.507Z,101215.53
2023-03-15T04:41:16.046Z,101211.09
2023-03-15T04:43:45.715Z,101212.88
2023-03-15T04:46:13.444Z,101215.34
2023-03-15T04:48:41.610Z,101221.47
2023-03-15T04:51:09.399Z,101216.09
2023-03-15T04:53:38.990Z,101215.16
2023-03-15T04:56:07.236Z,101211.53
2023-03-15T04:58:34.959Z,101222.03
2023-03-15T05:01:04.327Z,101216.59
2023-03-15T05:03:32.134Z,101219.97
2023-03-15T05:05:59.829Z,101225.97
2023-03-15T05:08:27.531Z,101233.91
2023-03-15T05:10:55.286Z,101233.81
2023-03-15T05:13:22.976Z,101246.25
2023-03-15T05:15:50.974Z,101242.88
2023-03-15T05:18:20.001Z,101254.44
2023-03-15T05:20:47.646Z,101262.44
2023-03-15T05:23:15.365Z,101274.00
2023-03-15T05:25:43.112Z,101266.00
2023-03-15T05:28:10.805Z,101274.66
2023-03-15T05:30:38.455Z,101279.22
2023-03-15T05:33:06.190Z,101287.22
2023-03-15T05:35:35.308Z,101293.44
2023-03-15T05:38:03.602Z,101291.63
2023-03-15T05:40:31.303Z,101295.09
2023-03-15T05:42:58.948Z,101302.19
2023-03-15T05:45:26.607Z,101305.75
2023-03-15T05:47:54.225Z,101311.19
2023-03-15T05:50:21.969Z,101310.25
2023-03-15T05:52:53.030Z,101325.31
2023-03-15T05:55:20.977Z,101322.66
2023-03-15T05:57:48.724Z,101337.44
2023-03-15T06:00:17.523Z,101335.69
2023-03-15T06:02:46.441Z,101333.09
2023-03-15T06:05:14.672Z,101330.44
2023-03-15T06:07:42.785Z,101336.81
2023-03-15T06:10:12.718Z,101340.34
2023-03-15T06:12:40.583Z,101341.94
2023-03-15T06:15:09.466Z,101348.78
2023-03-15T06:17:37.397Z,101340.75
2023-03-15T06:20:05.522Z,101347.91
2023-03-15T06:22:33.235Z,101354.91
2023-03-15T06:25:00.921Z,101355.09
2023-03-15T06:27:30.102Z,101365.75
2023-03-15T06:29:58.384Z,101363.00
2023-03-15T06:32:26.349Z,101378.03
2023-03-15T06:34:54.115Z,101372.75
2023-03-15T06:37:34.272Z,101385.34
2023-03-15T06:40:04.161Z,101382.69
2023-03-15T06:42:33.147Z,101386.19
2023-03-15T06:45:01.145Z,101391.47
2023-03-15T06:47:29.226Z,101392.56
2023-03-15T06:49:57.078Z,101394.25
2023-03-15T06:52:24.932Z,101389.00
2023-03-15T06:54:52.649Z,101404.91
2023-03-15T06:57:20.396Z,101405.81
2023-03-15T06:59:49.512Z,101404.00
2023-03-15T07:02:18.921Z,101417.94
2023-03-15T07:04:46.684Z,101425.31
2023-03-15T07:07:14.813Z,101433.41
2023-03-15T07:09:42.745Z,101425.53
2023-03-15T07:12:11.690Z,101428.34
2023-03-15T07:14:39.340Z,101438.91
2023-03-15T07:17:08.534Z,101434.38
2023-03-15T07:19:41.369Z,101434.44
2023-03-15T07:22:14.525Z,101448.47
2023-03-15T07:24:42.188Z,101447.66
2023-03-15T07:27:15.104Z,101453.16
2023-03-15T07:29:43.845Z,101462.56
2023-03-15T07:32:13.023Z,101459.34
2023-03-15T07:34:40.943Z,101461.03
2023-03-15T07:37:08.817Z,101465.13
2023-03-15T07:39:36.611Z,101472.53
2023-03-15T07:42:07.129Z,101473.84
2023-03-15T07:44:34.846Z,101483.00
2023-03-15T07:47:02.608Z,101487.59
2023-03-15T07:49:32.015Z,101495.59
2023-03-15T07:51:59.672Z,101504.06
2023-03-15T07:54:29.457Z,101513.59
2023-03-15T07:56:57.164Z,101516.25
2023-03-15T07:59:24.960Z,101520.81
2023-03-15T08:01:52.834Z,101532.47
2023-03-15T08:04:21.190Z,101531.72
2023-03-15T08:06:50.221Z,101537.25
2023-03-15T08:09:17.932Z,101531.41
2023-03-15T08:11:45.824Z,101528.09
2023-03-15T08:14:13.634Z,101541.72
2023-03-15T08:16:41.400Z,101547.00
2023-03-15T08:19:09.222Z,101540.88
2023-03-15T08:21:36.972Z,101534.78
2023-03-15T08:24:06.643Z,101536.84
2023-03-15T08:26:34.358Z,101545.97
2023-03-15T08:29:02.572Z,101550.44
2023-03-15T08:31:31.021Z,101549.53
2023-03-15T08:33:58.730Z,101556.66
2023-03-15T08:36:26.603Z,101552.31
2023-03-15T08:38:54.314Z,101560.25
2023-03-15T08:41:23.328Z,101562.06
2023-03-15T08:43:51.015Z,101565.59
2023-03-15T08:46:19.821Z,101577.94
2023-03-15T08:48:47.629Z,101579.06
2023-03-15T08:51:15.280Z,101592.56
2023-03-15T08:53:43.130Z,101597.69
2023-03-15T08:56:10.773Z,101596.06
2023-03-15T08:58:39.839Z,101606.72
2023-03-15T09:01:07.519Z,101611.84
2023-03-15T09:03:35.233Z,101605.75
2023-03-15T09:06:02.905Z,101612.06
2023-03-15T09:08:33.227Z,101612.44
2023-03-15T09:11:01.539Z,101611.88
2023-03-15T09:13:30.432Z,101626.00
2023-03-15T09:15:59.521Z,101619.94
2023-03-15T09:18:27.229Z,101628.56
2023-03-15T09:20:56.748Z,101625.66
2023-03-15T09:23:25.098Z,101620.31
2023-03-15T09:25:52.819Z,101632.00
2023-03-15T09:28:20.595Z,101632.72
2023-03-15T09:30:48.377Z,101635.59
2023-03-15T09:33:17.514Z,101641.16
2023-03-15T09:35:45.354Z,101647.47
2023-03-15T09:38:13.137Z,101650.22
2023-03-15T09:40:45.046Z,101651.13
2023-03-15T09:43:45.255Z,101649.16
2023-03-15T09:46:28.101Z,101649.75
2023-03-15T09:49:02.399Z,101650.31
2023-03-15T09:51:36.602Z,101658.97
2023-03-15T09:54:09.270Z,101651.00
2023-03-15T09:56:40.834Z,101645.44
2023-03-15T09:59:11.536Z,101649.94
2023-03-15T10:01:41.541Z,101649.09
2023-03-15T10:04:18.788Z,101650.13
2023-03-15T10:06:51.139Z,101649.47
2023-03-15T10:09:27.918Z,101647.94
2023-03-15T10:12:04.853Z,101646.41
2023-03-15T10:14:52.857Z,101651.53
2023-03-15T10:17:30.690Z,101650.59
2023-03-15T10:20:05.964Z,101646.97
2023-03-15T10:22:41.820Z,101647.00
2023-03-15T10:25:17.026Z,101649.94
2023-03-15T10:27:49.242Z,101650.22
2023-03-15T10:30:20.121Z,101643.13
2023-03-15T10:32:53.032Z,101655.81
2023-03-15T10:35:22.532Z,101648.72
2023-03-15T10:37:50.248Z,101648.00
2023-03-15T10:40:41.812Z,101651.41
2023-03-15T10:43:20.432Z,101653.28
2023-03-15T10:45:58.397Z,101660.50
2023-03-15T10:48:26.179Z,101651.84
2023-03-15T10:50:55.807Z,101654.53
2023-03-15T10:53:25.553Z,101659.97
2023-03-15T10:56:01.621Z,101659.91
2023-03-15T10:58:39.790Z,101655.56
2023-03-15T11:01:09.812Z,101660.00
2023-03-15T11:03:38.738Z,101658.28
2023-03-15T11:06:21.902Z,101660.06
2023-03-15T11:08:49.608Z,101662.63
2023-03-15T11:11:17.282Z,101658.97
2023-03-15T11:13:59.455Z,101665.41
2023-03-15T11:16:27.223Z,101668.88
2023-03-15T11:18:59.026Z,101672.59
2023-03-15T11:21:33.446Z,101663.13
2023-03-15T11:24:03.293Z,101672.09
2023-03-15T11:26:35.728Z,101680.19
2023-03-15T11:29:05.537Z,101675.66
2023-03-15T11:31:34.942Z,101684.75
2023-03-15T11:34:09.868Z,101693.88
2023-03-15T11:36:45.360Z,101692.97
2023-03-15T11:39:17.020Z,101695.78
2023-03-15T11:41:51.325Z,101684.41
2023-03-15T11:44:29.078Z,101687.16
2023-03-15T11:47:02.257Z,101684.59
2023-03-15T11:49:36.406Z,101681.09
2023-03-15T11:52:06.500Z,101688.31
2023-03-15T11:54:34.397Z,101689.16
2023-03-15T11:57:05.577Z,101698.94
2023-03-15T11:59:35.232Z,101692.72
2023-03-15T12:02:22.677Z,101695.47
2023-03-15T12:04:51.435Z,101688.41
2023-03-15T12:07:47.777Z,101684.16
2023-03-15T12:10:35.822Z,101686.91
2023-03-15T12:13:20.130Z,101687.72
2023-03-15T12:15:51.205Z,101688.50
2023-03-15T12:18:33.902Z,101685.75
2023-03-15T12:21:13.043Z,101683.28
2023-03-15T12:23:47.337Z,101698.63
2023-03-15T12:26:27.385Z,101691.53
2023-03-15T12:29:08.828Z,101685.34
2023-03-15T12:31:52.983Z,101687.16
2023-03-15T12:34:27.483Z,101680.97
2023-03-15T12:36:59.129Z,101677.47
2023-03-15T12:39:41.015Z,101677.63
2023-03-15T12:42:15.275Z,101669.69
2023-03-15T12:44:44.292Z,101667.03
2023-03-15T12:47:13.068Z,101674.19
2023-03-15T12:49:43.587Z,101674.28
2023-03-15T12:52:35.602Z,101672.50
2023-03-15T12:55:15.785Z,101677.91
2023-03-15T12:57:50.065Z,101676.97
2023-03-15T13:00:20.605Z,101681.41
2023-03-15T13:02:51.797Z,101677.84
2023-03-15T13:05:26.604Z,101678.66
2023-03-15T13:08:08.850Z,101681.31
2023-03-15T13:10:54.254Z,101677.78
2023-03-15T13:13:33.923Z,101675.16
2023-03-15T13:16:18.630Z,101673.47
2023-03-15T13:18:55.907Z,101673.50
2023-03-15T13:21:29.480Z,101669.00
2023-03-15T13:23:59.233Z,101665.41
2023-03-15T13:26:47.724Z,101671.63
2023-03-15T13:29:19.420Z,101668.94
2023-03-15T13:31:47.861Z,101673.44
2023-03-15T13:34:19.692Z,101671.69
2023-03-15T13:36:50.138Z,101676.19
2023-03-15T13:39:23.182Z,101671.75
2023-03-15T13:41:58.778Z,101674.44
2023-03-15T13:44:27.890Z,101676.25
2023-03-15T13:46:56.358Z,101675.31
2023-03-15T13:49:25.037Z,101670.75
2023-03-15T13:51:54.380Z,101678.75
2023-03-15T13:54:27.614Z,101676.13
2023-03-15T13:57:05.053Z,101677.00
2023-03-15T13:59:40.906Z,101679.75
2023-03-15T14:02:14.222Z,101680.69
2023-03-15T14:04:41.939Z,101672.66
2023-03-15T14:07:23.827Z,101679.78
2023-03-15T14:10:24.010Z,101669.97
2023-03-15T14:12:53.888Z,101673.50
2023-03-15T14:15:26.186Z,101669.00
2023-03-15T14:18:02.193Z,101682.31
2023-03-15T14:20:33.566Z,101678.81
2023-03-15T14:23:02.864Z,101683.34
2023-03-15T14:25:34.892Z,101691.38
2023-03-15T14:28:04.978Z,101685.16
2023-03-15T14:30:36.969Z,101684.31
2023-03-15T14:33:07.581Z,101692.34
2023-03-15T14:35:43.673Z,101689.69
2023-03-15T14:38:18.899Z,101687.91
2023-03-15T14:40:47.099Z,101700.34
2023-03-15T14:43:16.708Z,101703.84
2023-03-15T14:45:47.429Z,101707.34
2023-03-15T14:48:19.887Z,101707.34
2023-03-15T14:50:48.654Z,101710.88
2023-03-15T14:53:20.732Z,101709.88
2023-03-15T14:55:48.546Z,101714.31
2023-03-15T14:58:19.282Z,101715.91
2023-03-15T15:00:49.348Z,101722.09
2023-03-15T15:03:23.137Z,101725.69
2023-03-15T15:05:51.313Z,101718.59
2023-03-15T15:08:22.138Z,101717.75
2023-03-15T15:10:51.726Z,101722.22
2023-03-15T15:13:22.689Z,101718.59
2023-03-15T15:15:55.957Z,101718.56
2023-03-15T15:18:38.672Z,101709.66
2023-03-15T15:21:14.043Z,101711.41
2023-03-15T15:23:57.367Z,101714.09
2023-03-15T15:26:28.693Z,101708.75
2023-03-15T15:28:58.480Z,101700.75
2023-03-15T15:31:27.608Z,101708.72
2023-03-15T15:33:57.174Z,101704.31
2023-03-15T15:36:27.565Z,101699.84
2023-03-15T15:38:55.518Z,101702.47
2023-03-15T15:41:25.424Z,101701.47
2023-03-15T15:43:53.387Z,101696.16
2023-03-15T15:46:23.920Z,101695.22
2023-03-15T15:48:52.302Z,101694.34
2023-03-15T15:51:26.031Z,101690.81
2023-03-15T15:53:55.552Z,101688.13
2023-03-15T15:56:28.060Z,101685.38
2023-03-15T15:58:56.352Z,101687.13
2023-03-15T16:01:26.310Z,101688.00
2023-03-15T16:03:54.064Z,101697.81
2023-03-15T16:06:23.490Z,101690.69
2023-03-15T16:08:53.618Z,101685.34
2023-03-15T16:11:22.293Z,101685.34
2023-03-15T16:13:53.739Z,101677.38
2023-03-15T16:16:22.353Z,101680.94
2023-03-15T16:18:51.591Z,101688.94
2023-03-15T16:21:28.552Z,101687.16
2023-03-15T16:24:00.418Z,101682.72
2023-03-15T16:26:29.812Z,101685.34
2023-03-15T16:28:57.611Z,101677.34
2023-03-15T16:31:27.837Z,101681.78
2023-03-15T16:33:59.952Z,101680.00
2023-03-15T16:36:28.481Z,101685.31
2023-03-15T16:38:56.695Z,101689.69
2023-03-15T16:41:24.368Z,101686.09
2023-03-15T16:43:51.996Z,101693.13
2023-03-15T16:46:23.683Z,101688.66
2023-03-15T16:48:51.624Z,101692.25
2023-03-15T16:51:20.820Z,101696.66
2023-03-15T16:53:48.599Z,101697.56
2023-03-15T16:56:16.491Z,101701.97
2023-03-15T16:58:45.579Z,101707.25
2023-03-15T17:01:13.314Z,101707.19
2023-03-15T17:03:43.541Z,101705.34
2023-03-15T17:06:20.154Z,101710.59
2023-03-15T17:08:49.698Z,101707.84
2023-03-15T17:11:23.354Z,101717.53
2023-03-15T17:13:54.058Z,101712.16
2023-03-15T17:16:21.939Z,101709.41
2023-03-15T17:18:49.753Z,101715.59
2023-03-15T17:21:29.090Z,101711.13
2023-03-15T17:23:58.411Z,101716.41
2023-03-15T17:26:26.063Z,101713.69
2023-03-15T17:28:57.619Z,101720.69
2023-03-15T17:31:25.936Z,101725.94
2023-03-15T17:33:53.737Z,101727.66
2023-03-15T17:36:23.536Z,101716.03
2023-03-15T17:38:51.756Z,101730.16
2023-03-15T17:41:22.713Z,101728.31
2023-03-15T17:43:54.199Z,101733.59
2023-03-15T17:46:28.134Z,101727.22
2023-03-15T17:48:56.228Z,101740.44
2023-03-15T17:51:26.745Z,101736.81
2023-03-15T17:53:55.438Z,101742.03
2023-03-15T17:56:24.541Z,101746.41
2023-03-15T17:58:52.656Z,101746.34
2023-03-15T18:01:23.538Z,101741.88
2023-03-15T18:03:51.987Z,101735.59
2023-03-15T18:06:21.084Z,101734.63
2023-03-15T18:08:49.375Z,101745.25
2023-03-15T18:11:20.666Z,101740.69
2023-03-15T18:13:49.964Z,101747.72
2023-03-15T18:16:18.082Z,101746.78
2023-03-15T18:18:45.865Z,101744.91
2023-03-15T18:21:15.480Z,101752.88
2023-03-15T18:23:43.517Z,101747.41
2023-03-15T18:26:12.444Z,101754.56
2023-03-15T18:28:40.550Z,101758.97
2023-03-15T18:31:14.305Z,101765.16
2023-03-15T18:33:42.500Z,101755.28
2023-03-15T18:36:11.516Z,101765.88
2023-03-15T18:38:40.250Z,101764.94
2023-03-15T18:41:14.181Z,101768.38
2023-03-15T18:43:41.905Z,101764.81
2023-03-15T18:46:10.102Z,101782.50
2023-03-15T18:48:41.024Z,101774.50
2023-03-15T18:51:12.132Z,101776.28
2023-03-15T18:53:41.229Z,101774.47
2023-03-15T18:56:17.464Z,101785.13
2023-03-15T18:58:45.256Z,101777.97
2023-03-15T19:01:18.785Z,101786.91
2023-03-15T19:03:50.530Z,101777.13
2023-03-15T19:06:18.485Z,101777.06
2023-03-15T19:08:46.579Z,101777.06
2023-03-15T19:11:14.415Z,101775.28
2023-03-15T19:13:43.433Z,101777.06
2023-03-15T19:16:11.065Z,101771.75
2023-03-15T19:18:42.586Z,101770.84
2023-03-15T19:21:11.693Z,101773.41
2023-03-15T19:23:39.466Z,101769.81
2023-03-15T19:26:07.477Z,101771.53
2023-03-15T19:28:35.234Z,101775.91
2023-03-15T19:31:03.223Z,101778.56
2023-03-15T19:33:31.006Z,101775.88
2023-03-15T19:35:58.764Z,101784.72
2023-03-15T19:38:28.114Z,101774.06
2023-03-15T19:40:58.549Z,101768.75
2023-03-15T19:43:27.215Z,101768.72
2023-03-15T19:45:54.939Z,101769.56
2023-03-15T19:48:22.637Z,101768.63
2023-03-15T19:50:50.946Z,101764.19
2023-03-15T19:53:19.129Z,101757.94
2023-03-15T19:55:48.294Z,101762.38
2023-03-15T19:58:15.998Z,101771.19
2023-03-15T20:00:43.747Z,101775.59
2023-03-15T20:03:12.541Z,101787.97
2023-03-15T20:05:40.313Z,101788.84
2023-03-15T20:08:09.623Z,101792.41
2023-03-15T20:10:37.570Z,101793.28
2023-03-15T20:13:06.731Z,101796.81
2023-03-15T20:15:34.546Z,101789.72
2023-03-15T20:18:02.509Z,101784.31
2023-03-15T20:20:32.865Z,101784.31
2023-03-15T20:23:00.635Z,101786.03
2023-03-15T20:25:30.918Z,101787.59
2023-03-15T20:27:58.807Z,101785.81
2023-03-15T20:30:27.956Z,101778.69
2023-03-15T20:32:55.875Z,101776.03
2023-03-15T20:35:28.185Z,101772.50
2023-03-15T20:37:56.277Z,101775.13
2023-03-15T20:40:24.475Z,101775.97
2023-03-15T20:42:53.202Z,101782.94
2023-03-15T20:45:29.488Z,101773.91
2023-03-15T20:47:58.531Z,101779.22
2023-03-15T20:50:26.471Z,101785.41
2023-03-15T20:52:54.127Z,101774.72
2023-03-15T20:55:21.835Z,101779.03
2023-03-15T20:57:49.519Z,101782.53
2023-03-15T21:00:19.884Z,101778.91
2023-03-15T21:02:48.734Z,101782.44
2023-03-15T21:05:18.544Z,101780.63
2023-03-15T21:07:46.664Z,101784.91
2023-03-15T21:10:14.773Z,101789.28
2023-03-15T21:12:43.915Z,101779.47
2023-03-15T21:15:15.395Z,101782.97
2023-03-15T21:17:43.105Z,101786.44
2023-03-15T21:20:14.304Z,101780.22
2023-03-15T21:22:44.493Z,101781.03
2023-03-15T21:25:13.266Z,101783.63
2023-03-15T21:27:41.140Z,101786.13
2023-03-15T21:30:10.813Z,101774.53
2023-03-15T21:32:38.586Z,101781.59
2023-03-15T21:35:07.563Z,101772.69
2023-03-15T21:37:35.409Z,101759.34
2023-03-15T21:40:06.429Z,101768.09
2023-03-15T21:42:34.651Z,101767.13
2023-03-15T21:45:02.527Z,101764.44
2023-03-15T21:47:30.153Z,101766.13
2023-03-15T21:49:57.872Z,101758.84
2023-03-15T21:52:27.978Z,101756.22
2023-03-15T21:54:56.044Z,101761.50
2023-03-15T21:57:25.155Z,101760.53
2023-03-15T21:59:52.816Z,101762.28
2023-03-15T22:02:20.590Z,101766.66
2023-03-15T22:04:48.686Z,101758.63
2023-03-15T22:07:16.410Z,101747.16
2023-03-15T22:09:44.298Z,101758.66
2023-03-15T22:12:14.164Z,101756.06
2023-03-15T22:15:04.766Z,101757.78
2023-03-15T22:17:33.559Z,101748.84
2023-03-15T22:20:01.979Z,101751.44
2023-03-15T22:22:29.639Z,101749.59
2023-03-15T22:24:57.290Z,101743.38
2023-03-15T22:27:25.065Z,101747.78
2023-03-15T22:29:54.095Z,101741.63
2023-03-15T22:32:21.768Z,101742.47
2023-03-15T22:34:49.426Z,101753.06
2023-03-15T22:37:17.082Z,101753.06
2023-03-15T22:39:44.851Z,101741.53
2023-03-15T22:42:12.555Z,101743.19
2023-03-15T22:44:40.268Z,101739.63
2023-03-15T22:47:09.584Z,101742.19
2023-03-15T22:49:37.455Z,101742.09
2023-03-15T22:52:05.261Z,101737.63
2023-03-15T22:54:32.965Z,101732.28
2023-03-15T22:57:01.321Z,101740.22
2023-03-15T22:59:29.180Z,101741.88
2023-03-15T23:01:57.026Z,101735.72
2023-03-15T23:04:26.203Z,101735.69
2023-03-15T23:06:53.957Z,101741.78
2023-03-15T23:09:22.482Z,101733.81
2023-03-15T23:11:50.883Z,101748.88
2023-03-15T23:14:18.536Z,101737.34
2023-03-15T23:16:46.222Z,101734.69
2023-03-15T23:19:14.564Z,101736.38
2023-03-15T23:21:43.732Z,101746.91
2023-03-15T23:24:15.862Z,101746.91
2023-03-15T23:26:43.886Z,101742.47
2023-03-15T23:29:11.689Z,101736.16
2023-03-15T23:31:40.310Z,101735.28
2023-03-15T23:34:12.669Z,101742.31
2023-03-15T23:36:40.403Z,101736.00
2023-03-15T23:39:09.508Z,101736.00
2023-03-15T23:41:37.471Z,101734.13
2023-03-15T23:44:05.181Z,101735.88
2023-03-15T23:46:36.128Z,101732.31
2023-03-15T23:49:04.297Z,101729.72
2023-03-15T23:51:33.070Z,101737.69
2023-03-15T23:54:00.866Z,101731.47
2023-03-15T23:56:30.471Z,101734.03
2023-03-15T23:58:58.650Z,101734.84
